Weather History for KAVK - November, 2012

Change the Weather History Date:

Saturday, November 3, 2012

  Actual Average Record
Temperature  
Mean Temperature 50 °F -  
Max Temperature 62 °F 60 °F 82 °F (1978)
Min Temperature 37 °F 35 °F 10 °F (1991)
Degree Days  
Heating Degree Days 16    
Moisture  
Dew Point 34 °F    
Average Humidity 58    
Maximum Humidity 87    
Minimum Humidity 32    
Precipitation  
Precipitation 0.00 in - - ()
Sea Level Pressure  
Sea Level Pressure 30.16 in    
Wind  
Wind Speed 10 mph (North)    
Max Wind Speed 16 mph    
Max Gust Speed 22 mph    
Visibility 9 miles    
Events      
Averages and records for this station are not official NWS values.
T = Trace of Precipitation, MM = Missing Value Source: NWS Daily Summary

Daily Weather History Graph

Daily Weather History Graph

Search for Another Location

Airport or City:

Trip Planner

Search our weather history database for the weather conditions in past years. The results will help you decide how hot, cold, wet, or windy it might be!

Date:

Astronomy

Nov. 03, 2012 Rise Set
Actual Time 8:00 AM CDT 6:35 PM CDT
Civil Twilight 7:34 AM CDT 7:01 PM CDT
Nautical Twilight 7:03 AM CDT 7:32 PM CDT
Astronomical Twilight 6:33 AM CDT 8:02 PM CDT
Moon 10:19 PM CDT (11/3) 12:03 PM CDT (11/3)
Length of Visible Light 11h 27m
Length of Day
10h 34m
Waning Gibbous, 80% of the Moon is Illuminated
Nov 3
Waning Gibbous
Nov 6
Last Quarter
Nov 13
New
Nov 20
First Quarter
Nov 28
Full

Hourly Weather History & Observations

Time (CDT) Temp. Windchill Dew Point Humidity Pressure Visibility Wind Dir Wind Speed Gust Speed Precip Events Conditions
12:00 AM 50.0 °F - 37.4 °F 62% 30.04 in 10.0 mi North 11.5 mph - N/A   Clear
12:20 AM 50.0 °F - 37.4 °F 62% 30.05 in 9.0 mi NNW 10.4 mph - N/A   Partly Cloudy
12:40 AM 48.2 °F - 37.4 °F 66% 30.05 in 10.0 mi North 12.7 mph - N/A   Partly Cloudy
1:00 AM 48.2 °F - 37.4 °F 66% 30.06 in 9.0 mi North 11.5 mph 16.1 mph N/A   Scattered Clouds
1:20 AM 46.4 °F 41.9 °F 37.4 °F 71% 30.07 in 9.0 mi North 9.2 mph - N/A   Mostly Cloudy
1:40 AM 46.4 °F 41.5 °F 37.4 °F 71% 30.08 in 8.0 mi North 10.4 mph - N/A   Mostly Cloudy
2:00 AM 46.4 °F 41.5 °F 35.6 °F 66% 30.08 in 8.0 mi NNW 10.4 mph - N/A   Mostly Cloudy
2:20 AM 46.4 °F 41.5 °F 35.6 °F 66% 30.08 in 8.0 mi North 10.4 mph - N/A   Mostly Cloudy
2:40 AM 44.6 °F 38.4 °F 35.6 °F 71% 30.09 in 9.0 mi North 12.7 mph - N/A   Partly Cloudy
3:00 AM 44.6 °F 37.8 °F 35.6 °F 71% 30.09 in 8.0 mi North 15.0 mph - N/A   Clear
3:20 AM 44.6 °F 37.8 °F 35.6 °F 71% 30.09 in 8.0 mi North 15.0 mph - N/A   Clear
3:40 AM 44.6 °F 38.1 °F 35.6 °F 71% 30.10 in 8.0 mi North 13.8 mph - N/A   Clear
4:00 AM 42.8 °F 36.2 °F 35.6 °F 76% 30.11 in 8.0 mi North 12.7 mph - N/A   Clear
4:20 AM 42.8 °F 35.8 °F 35.6 °F 76% 30.11 in 8.0 mi North 13.8 mph 19.6 mph N/A   Clear
4:40 AM 41.0 °F 33.1 °F 35.6 °F 81% 30.11 in 7.0 mi North 15.0 mph - N/A   Clear
5:00 AM 41.0 °F 34.7 °F 35.6 °F 81% 30.13 in 7.0 mi North 10.4 mph - N/A   Clear
5:20 AM 41.0 °F 35.2 °F 35.6 °F 81% 30.13 in 7.0 mi North 9.2 mph - N/A   Clear
5:40 AM 39.2 °F 33.0 °F 35.6 °F 87% 30.14 in 7.0 mi North 9.2 mph - N/A   Clear
6:00 AM 39.2 °F 32.5 °F 35.6 °F 87% 30.16 in 7.0 mi NNW 10.4 mph - N/A   Clear
6:20 AM 39.2 °F 32.5 °F 33.8 °F 81% 30.16 in 7.0 mi North 10.4 mph - N/A   Clear
6:40 AM 39.2 °F 32.5 °F 33.8 °F 81% 30.17 in 7.0 mi North 10.4 mph - N/A   Clear
7:00 AM 39.2 °F 32.5 °F 33.8 °F 81% 30.17 in 7.0 mi North 10.4 mph - N/A   Clear
7:20 AM 39.2 °F 32.5 °F 33.8 °F 81% 30.18 in 6.0 mi North 10.4 mph - N/A   Haze
7:40 AM 39.2 °F 32.0 °F 33.8 °F 81% 30.18 in 7.0 mi North 11.5 mph - N/A   Clear
8:00 AM 37.4 °F 29.8 °F 33.8 °F 87% 30.19 in 5.0 mi North 11.5 mph - N/A   Clear
8:20 AM 39.2 °F 32.0 °F 33.8 °F 81% 30.20 in 5.0 mi NNW 11.5 mph - N/A   Haze
8:40 AM 39.2 °F 31.6 °F 33.8 °F 81% 30.21 in 5.0 mi North 12.7 mph - N/A   Haze
9:00 AM 41.0 °F 32.8 °F 33.8 °F 76% 30.22 in 7.0 mi North 16.1 mph - N/A   Clear
9:20 AM 42.8 °F 35.8 °F 33.8 °F 70% 30.21 in 7.0 mi North 13.8 mph - N/A   Clear
9:40 AM 46.4 °F 40.1 °F 32.0 °F 57% 30.22 in 8.0 mi North 15.0 mph 21.9 mph N/A   Clear
10:00 AM 46.4 °F 40.4 °F 32.0 °F 57% 30.22 in 8.0 mi North 13.8 mph - N/A   Clear
10:20 AM 48.2 °F - 32.0 °F 54% 30.22 in 9.0 mi North 15.0 mph - N/A   Clear
10:40 AM 48.2 °F - 32.0 °F 54% 30.22 in 9.0 mi North 13.8 mph - N/A   Clear
11:00 AM 50.0 °F - 32.0 °F 50% 30.23 in 9.0 mi North 13.8 mph - N/A   Clear
11:20 AM 50.0 °F - 32.0 °F 50% 30.23 in 8.0 mi North 13.8 mph - N/A   Clear
11:40 AM 50.0 °F - 33.8 °F 54% 30.23 in 10.0 mi NNE 12.7 mph 18.4 mph N/A   Clear
12:00 PM 51.8 °F - 33.8 °F 50% 30.23 in 9.0 mi NNE 9.2 mph - N/A   Clear
12:20 PM 53.6 °F - 33.8 °F 47% 30.22 in 10.0 mi North 6.9 mph - N/A   Clear
12:40 PM 55.4 °F - 33.8 °F 44% 30.21 in 9.0 mi North 9.2 mph - N/A   Clear
1:00 PM 55.4 °F - 33.8 °F 44% 30.21 in 9.0 mi NNE 9.2 mph - N/A   Clear
1:20 PM 57.2 °F - 33.8 °F 41% 30.20 in 10.0 mi NNE 5.8 mph - N/A   Clear
1:40 PM 57.2 °F - 32.0 °F 38% 30.19 in 10.0 mi NNE 11.5 mph 17.3 mph N/A   Clear
2:00 PM 57.2 °F - 32.0 °F 38% 30.19 in 10.0 mi NE 8.1 mph - N/A   Clear
2:20 PM 59.0 °F - 32.0 °F 36% 30.19 in 10.0 mi NNE 5.8 mph - N/A   Clear
2:40 PM 59.0 °F - 32.0 °F 36% 30.18 in 10.0 mi ENE 4.6 mph - N/A   Clear
3:00 PM 59.0 °F - 32.0 °F 36% 30.17 in 10.0 mi ENE 10.4 mph - N/A   Clear
3:20 PM 59.0 °F - 32.0 °F 36% 30.17 in 10.0 mi ENE 8.1 mph - N/A   Clear
3:40 PM 60.8 °F - 32.0 °F 34% 30.17 in 10.0 mi ENE 6.9 mph - N/A   Clear
4:00 PM 60.8 °F - 32.0 °F 34% 30.17 in 10.0 mi East 6.9 mph - N/A   Clear
4:20 PM 62.6 °F - 32.0 °F 32% 30.17 in 10.0 mi ENE 5.8 mph - N/A   Clear
4:40 PM 60.8 °F - 32.0 °F 34% 30.17 in 10.0 mi ENE 5.8 mph - N/A   Clear
5:00 PM 60.8 °F - 32.0 °F 34% 30.16 in 10.0 mi ENE 4.6 mph - N/A   Clear
5:20 PM 59.0 °F - 32.0 °F 36% 30.16 in 10.0 mi East 3.5 mph - N/A   Clear
5:40 PM 59.0 °F - 33.8 °F 39% 30.16 in 10.0 mi East 4.6 mph - N/A   Clear
6:00 PM 57.2 °F - 33.8 °F 41% 30.17 in 10.0 mi Calm Calm - N/A   Clear
6:20 PM 57.2 °F - 33.8 °F 41% 30.17 in 10.0 mi Calm Calm - N/A   Clear
6:40 PM 55.4 °F - 33.8 °F 44% 30.18 in 10.0 mi Calm Calm - N/A   Clear
7:00 PM 55.4 °F - 32.0 °F 41% 30.18 in 9.0 mi Calm Calm - N/A   Clear
7:20 PM 55.4 °F - 32.0 °F 41% 30.18 in 7.0 mi Calm Calm - N/A   Clear
7:40 PM 55.4 °F - 32.0 °F 41% 30.19 in 10.0 mi East 3.5 mph - N/A   Clear
8:00 PM 53.6 °F - 32.0 °F 44% 30.18 in 10.0 mi Calm Calm - N/A   Clear
8:20 PM 53.6 °F - 32.0 °F 44% 30.19 in 10.0 mi Calm Calm - N/A   Clear
8:40 PM 51.8 °F - 32.0 °F 47% 30.19 in 10.0 mi Calm Calm - N/A   Clear